createdAt,value
2022-12-05T00:00:39.445Z,11.68
2022-12-05T00:05:46.524Z,12.35
2022-12-05T00:10:50.351Z,12.55
2022-12-05T00:15:55.526Z,12.63
2022-12-05T00:20:59.303Z,11.40
2022-12-05T00:26:04.524Z,11.82
2022-12-05T00:31:12.240Z,11.48
2022-12-05T00:36:20.276Z,12.18
2022-12-05T00:41:26.398Z,10.07
2022-12-05T00:46:33.137Z,12.30
2022-12-05T00:51:38.821Z,11.85
2022-12-05T00:56:43.161Z,10.88
2022-12-05T01:01:50.293Z,13.27
2022-12-05T01:06:56.604Z,11.50
2022-12-05T01:12:00.628Z,11.60
2022-12-05T01:17:05.990Z,11.40
2022-12-05T01:22:09.954Z,12.05
2022-12-05T01:27:13.802Z,11.57
2022-12-05T01:32:19.358Z,11.95
2022-12-05T01:37:23.235Z,10.63
2022-12-05T01:42:27.207Z,11.85
2022-12-05T01:47:36.545Z,11.52
2022-12-05T01:52:40.926Z,11.27
2022-12-05T01:57:46.573Z,12.07
2022-12-05T02:07:59.512Z,11.32
2022-12-05T02:18:24.870Z,12.25
2022-12-05T02:24:09.455Z,13.20
2022-12-05T02:29:35.761Z,11.27
2022-12-05T02:34:50.233Z,11.52
2022-12-05T02:40:01.623Z,10.65
2022-12-05T02:45:10.087Z,10.23
2022-12-05T02:50:19.896Z,12.95
2022-12-05T02:55:26.034Z,11.43
2022-12-05T03:00:29.990Z,10.70
2022-12-05T03:05:42.402Z,10.13
2022-12-05T03:10:47.156Z,11.13
2022-12-05T03:15:57.259Z,10.10
2022-12-05T03:21:07.293Z,11.15
2022-12-05T03:26:20.756Z,11.50
2022-12-05T03:31:39.121Z,10.75
2022-12-05T03:36:50.143Z,11.40
2022-12-05T03:42:02.631Z,9.75
2022-12-05T03:47:13.734Z,11.40
2022-12-05T03:52:24.017Z,11.63
2022-12-05T03:57:32.920Z,11.80
2022-12-05T04:02:45.720Z,11.50
2022-12-05T04:07:59.650Z,9.70
2022-12-05T04:13:17.919Z,11.88
2022-12-05T04:18:24.153Z,11.85
2022-12-05T04:23:29.852Z,11.57
2022-12-05T04:28:38.096Z,10.18
2022-12-05T04:33:46.063Z,10.23
2022-12-05T04:38:55.416Z,11.23
2022-12-05T04:44:03.057Z,10.43
2022-12-05T04:49:09.775Z,11.27
2022-12-05T04:54:21.147Z,12.10
2022-12-05T04:59:25.000Z,10.80
2022-12-05T05:04:35.000Z,11.20
2022-12-05T05:09:41.351Z,10.63
2022-12-05T05:14:45.318Z,12.40
2022-12-05T05:19:49.168Z,12.70
2022-12-05T05:24:54.358Z,15.40
2022-12-05T05:29:58.164Z,15.97
2022-12-05T05:35:02.259Z,13.68
2022-12-05T05:40:11.227Z,15.35
2022-12-05T05:45:16.547Z,11.40
2022-12-05T05:50:22.042Z,13.55
2022-12-05T05:55:27.428Z,12.70
2022-12-05T06:00:31.206Z,13.27
2022-12-05T06:05:35.146Z,11.38
2022-12-05T06:10:41.005Z,14.00
2022-12-05T06:20:53.787Z,11.95
2022-12-05T06:25:59.040Z,9.60
2022-12-05T06:31:08.849Z,12.10
2022-12-05T06:36:15.386Z,12.00
2022-12-05T06:41:22.013Z,11.93
2022-12-05T06:46:26.773Z,11.82
2022-12-05T06:51:30.659Z,12.57
2022-12-05T06:56:35.899Z,12.48
2022-12-05T07:01:41.111Z,13.63
2022-12-05T07:06:50.472Z,13.82
2022-12-05T07:11:56.855Z,11.75
2022-12-05T07:17:00.913Z,13.27
2022-12-05T07:22:07.401Z,11.98
2022-12-05T07:27:15.577Z,12.75
2022-12-05T07:32:19.472Z,11.88
2022-12-05T07:37:23.930Z,13.27
2022-12-05T07:42:29.209Z,14.38
2022-12-05T07:47:33.144Z,14.23
2022-12-05T07:52:36.902Z,12.05
2022-12-05T07:57:42.139Z,13.52
2022-12-05T08:02:45.982Z,12.63
2022-12-05T08:07:49.841Z,11.70
2022-12-05T08:12:55.168Z,13.52
2022-12-05T08:17:58.977Z,12.47
2022-12-05T08:23:02.819Z,15.02
2022-12-05T08:28:08.250Z,15.52
2022-12-05T08:33:12.351Z,15.73
2022-12-05T08:38:16.108Z,14.02
2022-12-05T08:43:21.401Z,15.27
2022-12-05T08:48:29.418Z,18.38
2022-12-05T08:53:33.779Z,16.85
2022-12-05T08:58:39.968Z,20.25
2022-12-05T09:03:48.055Z,17.00
2022-12-05T09:08:55.396Z,19.33
2022-12-05T09:14:02.002Z,17.80
2022-12-05T09:19:06.377Z,17.60
2022-12-05T09:24:12.651Z,20.40
2022-12-05T09:29:18.772Z,16.77
2022-12-05T09:34:24.865Z,16.65
2022-12-05T09:39:29.263Z,19.98
2022-12-05T09:44:43.643Z,20.48
2022-12-05T09:49:52.531Z,19.20
2022-12-05T09:54:58.272Z,20.45
2022-12-05T10:05:16.548Z,18.77
2022-12-05T10:10:30.762Z,14.93
2022-12-05T10:15:45.529Z,18.65
2022-12-05T10:20:53.708Z,15.90
2022-12-05T10:26:00.646Z,18.55
2022-12-05T10:31:12.108Z,18.23
2022-12-05T10:36:17.205Z,19.27
2022-12-05T10:41:21.508Z,18.35
2022-12-05T10:46:26.811Z,17.95
2022-12-05T10:51:37.036Z,16.33
2022-12-05T10:56:46.013Z,18.92
2022-12-05T11:01:53.662Z,18.20
2022-12-05T11:07:00.986Z,20.13
2022-12-05T11:12:21.358Z,15.95
2022-12-05T11:17:32.314Z,8.43
2022-12-05T11:22:37.122Z,5.40
2022-12-05T11:27:41.799Z,5.90
2022-12-05T11:32:47.422Z,5.68
2022-12-05T11:37:55.131Z,5.57
2022-12-05T11:43:19.698Z,6.13
2022-12-05T11:48:41.763Z,6.65
2022-12-05T11:54:04.352Z,7.65
2022-12-05T11:59:41.852Z,5.15
2022-12-05T12:04:53.802Z,5.20
2022-12-05T12:10:10.253Z,5.10
2022-12-05T12:15:32.569Z,5.97
2022-12-05T12:20:59.424Z,6.22
2022-12-05T12:26:10.938Z,6.13
2022-12-05T12:31:53.454Z,5.60
2022-12-05T12:37:04.465Z,5.45
2022-12-05T12:42:19.235Z,5.10
2022-12-05T12:47:37.611Z,5.30
2022-12-05T12:52:59.208Z,5.75
2022-12-05T12:58:13.488Z,6.75
2022-12-05T13:03:21.506Z,6.22
2022-12-05T13:08:32.636Z,6.90
2022-12-05T13:13:41.540Z,6.15
2022-12-05T13:18:47.336Z,7.40
2022-12-05T13:29:02.119Z,5.72
2022-12-05T13:34:06.320Z,5.60
2022-12-05T13:39:41.617Z,6.80
2022-12-05T13:44:49.004Z,5.90
2022-12-05T13:49:56.225Z,6.85
2022-12-05T13:55:06.772Z,5.95
2022-12-05T14:00:26.438Z,5.45
2022-12-05T14:05:43.387Z,5.63
2022-12-05T14:11:11.015Z,4.32
2022-12-05T14:16:50.566Z,5.18
2022-12-05T14:22:00.794Z,5.82
2022-12-05T14:27:13.954Z,5.57
2022-12-05T14:32:25.760Z,6.05
2022-12-05T14:37:33.028Z,6.45
2022-12-05T14:42:43.193Z,5.95
2022-12-05T14:47:53.017Z,5.40
2022-12-05T14:53:19.760Z,5.72
2022-12-05T14:58:33.991Z,6.72
2022-12-05T15:03:42.599Z,5.68
2022-12-05T15:08:50.392Z,7.68
2022-12-05T15:13:59.391Z,22.60
2022-12-05T15:19:07.600Z,22.77
2022-12-05T15:24:15.174Z,22.60
2022-12-05T15:29:27.516Z,26.88
2022-12-05T15:34:36.820Z,26.77
2022-12-05T15:39:55.671Z,29.88
2022-12-05T15:45:20.117Z,26.50
2022-12-05T15:50:34.271Z,22.25
2022-12-05T15:55:42.654Z,23.15
2022-12-05T16:00:51.896Z,26.55
2022-12-05T16:05:59.298Z,31.20
2022-12-05T16:11:09.074Z,28.50
2022-12-05T16:16:19.116Z,27.50
2022-12-05T16:21:37.336Z,23.02
2022-12-05T16:26:42.532Z,23.42
2022-12-05T16:31:47.740Z,28.23
2022-12-05T16:36:53.988Z,27.88
2022-12-05T16:41:58.181Z,31.15
2022-12-05T16:47:03.540Z,28.15
2022-12-05T16:52:15.175Z,24.50
2022-12-05T16:57:19.244Z,24.15
2022-12-05T17:02:24.533Z,27.33
2022-12-05T17:07:33.764Z,29.13
2022-12-05T17:12:38.814Z,36.13
2022-12-05T17:17:44.729Z,36.08
2022-12-05T17:22:49.549Z,32.55
2022-12-05T17:27:53.654Z,28.67
2022-12-05T17:32:59.031Z,26.98
2022-12-05T17:38:04.409Z,26.65
2022-12-05T17:43:08.271Z,28.83
2022-12-05T17:48:15.776Z,29.73
2022-12-05T17:53:21.966Z,27.85
2022-12-05T17:58:25.804Z,25.58
2022-12-05T18:03:31.284Z,30.27
2022-12-05T18:08:41.599Z,25.40
2022-12-05T18:13:45.560Z,26.55
2022-12-05T18:18:51.335Z,26.48
2022-12-05T18:23:55.186Z,23.98
2022-12-05T18:28:59.471Z,23.75
2022-12-05T18:34:04.751Z,28.05
2022-12-05T18:39:12.581Z,27.40
2022-12-05T18:44:16.453Z,26.60
2022-12-05T18:49:21.749Z,26.08
2022-12-05T18:54:30.552Z,25.65
2022-12-05T18:59:35.155Z,25.98
2022-12-05T19:04:40.572Z,26.05
2022-12-05T19:09:45.629Z,26.00
2022-12-05T19:14:49.518Z,23.27
2022-12-05T19:19:56.981Z,20.67
2022-12-05T19:25:03.447Z,23.98
2022-12-05T19:30:10.292Z,24.50
2022-12-05T19:35:16.268Z,24.70
2022-12-05T19:40:20.271Z,23.65
2022-12-05T19:45:25.992Z,21.17
2022-12-05T19:55:35.384Z,23.63
2022-12-05T20:00:39.258Z,32.15
2022-12-05T20:05:44.743Z,24.08
2022-12-05T20:10:50.017Z,27.38
2022-12-05T20:15:58.068Z,26.77
2022-12-05T20:21:07.105Z,27.42
2022-12-05T20:26:13.657Z,25.42
2022-12-05T20:31:19.920Z,26.58
2022-12-05T20:36:27.161Z,24.30
2022-12-05T20:41:31.266Z,25.55
2022-12-05T20:46:37.019Z,26.75
2022-12-05T20:51:57.670Z,24.33
2022-12-05T20:57:03.231Z,24.10
2022-12-05T21:07:13.510Z,25.60
2022-12-05T21:12:17.449Z,23.80
2022-12-05T21:17:22.981Z,22.45
2022-12-05T21:22:28.378Z,22.63
2022-12-05T21:27:32.287Z,22.73
2022-12-05T21:32:36.471Z,22.85
2022-12-05T21:37:42.019Z,22.52
2022-12-05T21:42:46.264Z,24.33
2022-12-05T21:47:51.302Z,25.02
2022-12-05T21:52:57.297Z,26.13
2022-12-05T22:03:22.464Z,24.80
2022-12-05T22:08:32.617Z,24.67
2022-12-05T22:13:37.118Z,23.73
2022-12-05T22:18:41.333Z,23.45
2022-12-05T22:23:47.520Z,25.33
2022-12-05T22:28:52.224Z,27.10
2022-12-05T22:33:56.096Z,25.40
2022-12-05T22:39:01.370Z,27.63
2022-12-05T22:44:05.702Z,27.52
2022-12-05T22:49:11.722Z,23.45
2022-12-05T22:54:17.331Z,22.58
2022-12-05T22:59:22.725Z,24.33
2022-12-05T23:04:26.816Z,26.35
2022-12-05T23:09:50.911Z,24.20
2022-12-05T23:19:59.565Z,17.92
2022-12-05T23:25:05.241Z,22.52
2022-12-05T23:30:10.330Z,20.83
2022-12-05T23:35:14.013Z,19.90
2022-12-05T23:40:19.512Z,21.77
2022-12-05T23:45:23.244Z,21.10
2022-12-05T23:50:26.937Z,22.27
2022-12-05T23:55:35.746Z,22.92
